sensor_id;sensor_type;location;lat;lon;timestamp;temperature;humidity
25945;SHT31;13742;49.306;8.636;2023-08-24T00:00:28;24.00;58.58
25945;SHT31;13742;49.306;8.636;2023-08-24T00:01:28;24.00;58.65
25945;SHT31;13742;49.306;8.636;2023-08-24T00:02:28;24.00;58.48
25945;SHT31;13742;49.306;8.636;2023-08-24T00:03:28;23.97;58.76
25945;SHT31;13742;49.306;8.636;2023-08-24T00:04:28;23.93;58.95
25945;SHT31;13742;49.306;8.636;2023-08-24T00:05:28;23.95;58.67
25945;SHT31;13742;49.306;8.636;2023-08-24T00:06:28;23.95;58.55
25945;SHT31;13742;49.306;8.636;2023-08-24T00:07:28;23.95;58.24
25945;SHT31;13742;49.306;8.636;2023-08-24T00:08:28;23.96;58.24
25945;SHT31;13742;49.306;8.636;2023-08-24T00:09:29;23.96;58.52
25945;SHT31;13742;49.306;8.636;2023-08-24T00:10:28;23.93;58.58
25945;SHT31;13742;49.306;8.636;2023-08-24T00:11:28;23.92;58.56
25945;SHT31;13742;49.306;8.636;2023-08-24T00:12:28;23.95;58.31
25945;SHT31;13742;49.306;8.636;2023-08-24T00:13:28;23.93;58.16
25945;SHT31;13742;49.306;8.636;2023-08-24T00:14:28;23.95;57.94
25945;SHT31;13742;49.306;8.636;2023-08-24T00:15:29;23.95;58.41
25945;SHT31;13742;49.306;8.636;2023-08-24T00:16:29;23.95;58.16
25945;SHT31;13742;49.306;8.636;2023-08-24T00:17:28;23.95;58.35
25945;SHT31;13742;49.306;8.636;2023-08-24T00:18:28;23.92;57.83
25945;SHT31;13742;49.306;8.636;2023-08-24T00:19:28;23.89;58.38
25945;SHT31;13742;49.306;8.636;2023-08-24T00:20:28;23.90;58.03
25945;SHT31;13742;49.306;8.636;2023-08-24T00:21:28;23.89;58.09
25945;SHT31;13742;49.306;8.636;2023-08-24T00:22:28;23.88;57.71
25945;SHT31;13742;49.306;8.636;2023-08-24T00:23:28;23.89;57.92
25945;SHT31;13742;49.306;8.636;2023-08-24T00:24:29;23.89;57.87
25945;SHT31;13742;49.306;8.636;2023-08-24T00:25:29;23.89;57.62
25945;SHT31;13742;49.306;8.636;2023-08-24T00:26:28;23.90;57.86
25945;SHT31;13742;49.306;8.636;2023-08-24T00:27:28;23.88;57.87
25945;SHT31;13742;49.306;8.636;2023-08-24T00:28:28;23.88;57.90
25945;SHT31;13742;49.306;8.636;2023-08-24T00:29:28;23.90;58.02
25945;SHT31;13742;49.306;8.636;2023-08-24T00:30:28;23.90;57.80
25945;SHT31;13742;49.306;8.636;2023-08-24T00:31:28;23.92;57.57
25945;SHT31;13742;49.306;8.636;2023-08-24T00:32:28;23.90;57.64
25945;SHT31;13742;49.306;8.636;2023-08-24T00:33:28;23.93;57.70
25945;SHT31;13742;49.306;8.636;2023-08-24T00:34:28;23.92;57.66
25945;SHT31;13742;49.306;8.636;2023-08-24T00:35:28;23.90;57.66
25945;SHT31;13742;49.306;8.636;2023-08-24T00:36:28;23.93;57.78
25945;SHT31;13742;49.306;8.636;2023-08-24T00:37:31;23.95;57.73
25945;SHT31;13742;49.306;8.636;2023-08-24T00:38:28;23.92;57.89
25945;SHT31;13742;49.306;8.636;2023-08-24T00:39:28;23.96;57.73
25945;SHT31;13742;49.306;8.636;2023-08-24T00:40:28;23.95;57.60
25945;SHT31;13742;49.306;8.636;2023-08-24T00:41:28;23.95;57.72
25945;SHT31;13742;49.306;8.636;2023-08-24T00:42:28;23.96;57.44
25945;SHT31;13742;49.306;8.636;2023-08-24T00:43:28;23.95;57.48
25945;SHT31;13742;49.306;8.636;2023-08-24T00:44:28;23.95;57.70
25945;SHT31;13742;49.306;8.636;2023-08-24T00:45:30;23.96;57.42
25945;SHT31;13742;49.306;8.636;2023-08-24T00:46:28;23.97;57.43
25945;SHT31;13742;49.306;8.636;2023-08-24T00:47:29;23.97;57.64
25945;SHT31;13742;49.306;8.636;2023-08-24T00:48:29;24.00;58.11
25945;SHT31;13742;49.306;8.636;2023-08-24T00:49:28;24.00;57.79
25945;SHT31;13742;49.306;8.636;2023-08-24T00:50:28;23.97;57.64
25945;SHT31;13742;49.306;8.636;2023-08-24T00:51:28;23.99;57.46
25945;SHT31;13742;49.306;8.636;2023-08-24T00:52:29;23.99;57.50
25945;SHT31;13742;49.306;8.636;2023-08-24T00:53:29;23.99;57.82
25945;SHT31;13742;49.306;8.636;2023-08-24T00:54:28;23.97;57.49
25945;SHT31;13742;49.306;8.636;2023-08-24T00:55:28;23.97;57.51
25945;SHT31;13742;49.306;8.636;2023-08-24T00:56:30;23.97;57.69
25945;SHT31;13742;49.306;8.636;2023-08-24T00:57:28;23.96;57.47
25945;SHT31;13742;49.306;8.636;2023-08-24T00:58:28;23.96;57.86
25945;SHT31;13742;49.306;8.636;2023-08-24T00:59:28;23.95;58.00
25945;SHT31;13742;49.306;8.636;2023-08-24T01:00:28;23.92;57.58
25945;SHT31;13742;49.306;8.636;2023-08-24T01:01:28;23.92;57.57
25945;SHT31;13742;49.306;8.636;2023-08-24T01:02:28;23.90;57.65
25945;SHT31;13742;49.306;8.636;2023-08-24T01:03:28;23.89;57.87
25945;SHT31;13742;49.306;8.636;2023-08-24T01:04:28;23.88;57.76
25945;SHT31;13742;49.306;8.636;2023-08-24T01:05:28;23.89;57.76
25945;SHT31;13742;49.306;8.636;2023-08-24T01:06:28;23.89;57.69
25945;SHT31;13742;49.306;8.636;2023-08-24T01:07:28;23.89;58.03
25945;SHT31;13742;49.306;8.636;2023-08-24T01:08:28;23.88;57.64
25945;SHT31;13742;49.306;8.636;2023-08-24T01:09:28;23.88;57.76
25945;SHT31;13742;49.306;8.636;2023-08-24T01:10:38;23.86;58.00
25945;SHT31;13742;49.306;8.636;2023-08-24T01:13:37;23.85;57.69
25945;SHT31;13742;49.306;8.636;2023-08-24T01:16:30;23.85;57.71
25945;SHT31;13742;49.306;8.636;2023-08-24T01:17:30;23.85;57.82
25945;SHT31;13742;49.306;8.636;2023-08-24T01:18:30;23.85;57.89
25945;SHT31;13742;49.306;8.636;2023-08-24T01:20:28;23.88;57.73
25945;SHT31;13742;49.306;8.636;2023-08-24T01:21:29;23.88;57.80
25945;SHT31;13742;49.306;8.636;2023-08-24T01:23:36;23.89;57.90
25945;SHT31;13742;49.306;8.636;2023-08-24T01:24:38;23.90;57.89
25945;SHT31;13742;49.306;8.636;2023-08-24T01:25:40;23.89;57.76
25945;SHT31;13742;49.306;8.636;2023-08-24T01:26:29;23.89;57.81
25945;SHT31;13742;49.306;8.636;2023-08-24T01:27:29;23.89;57.71
25945;SHT31;13742;49.306;8.636;2023-08-24T01:28:28;23.90;57.60
25945;SHT31;13742;49.306;8.636;2023-08-24T01:29:28;23.90;57.62
25945;SHT31;13742;49.306;8.636;2023-08-24T01:30:29;23.90;57.50
25945;SHT31;13742;49.306;8.636;2023-08-24T01:31:28;23.93;57.77
25945;SHT31;13742;49.306;8.636;2023-08-24T01:32:33;23.93;57.97
25945;SHT31;13742;49.306;8.636;2023-08-24T01:33:28;23.92;57.62
25945;SHT31;13742;49.306;8.636;2023-08-24T01:34:28;23.92;57.52
25945;SHT31;13742;49.306;8.636;2023-08-24T01:35:28;23.92;57.77
25945;SHT31;13742;49.306;8.636;2023-08-24T01:36:28;23.93;58.01
25945;SHT31;13742;49.306;8.636;2023-08-24T01:37:28;23.92;57.57
25945;SHT31;13742;49.306;8.636;2023-08-24T01:38:29;23.90;57.96
25945;SHT31;13742;49.306;8.636;2023-08-24T01:39:31;23.88;57.93
25945;SHT31;13742;49.306;8.636;2023-08-24T01:40:39;23.85;57.99
25945;SHT31;13742;49.306;8.636;2023-08-24T01:41:31;23.83;57.76
25945;SHT31;13742;49.306;8.636;2023-08-24T01:42:29;23.83;57.91
25945;SHT31;13742;49.306;8.636;2023-08-24T01:43:30;23.82;57.83
25945;SHT31;13742;49.306;8.636;2023-08-24T01:44:29;23.82;58.01
25945;SHT31;13742;49.306;8.636;2023-08-24T01:45:30;23.82;58.15
25945;SHT31;13742;49.306;8.636;2023-08-24T01:46:29;23.83;58.09
25945;SHT31;13742;49.306;8.636;2023-08-24T01:47:29;23.83;58.20
25945;SHT31;13742;49.306;8.636;2023-08-24T01:48:29;23.86;58.17
25945;SHT31;13742;49.306;8.636;2023-08-24T01:49:29;23.82;58.32
25945;SHT31;13742;49.306;8.636;2023-08-24T01:50:29;23.82;57.99
25945;SHT31;13742;49.306;8.636;2023-08-24T01:51:28;23.82;58.08
25945;SHT31;13742;49.306;8.636;2023-08-24T01:52:28;23.83;58.18
25945;SHT31;13742;49.306;8.636;2023-08-24T01:53:30;23.82;58.47
25945;SHT31;13742;49.306;8.636;2023-08-24T01:54:28;23.78;58.54
25945;SHT31;13742;49.306;8.636;2023-08-24T01:55:28;23.79;58.57
25945;SHT31;13742;49.306;8.636;2023-08-24T01:56:28;23.78;58.71
25945;SHT31;13742;49.306;8.636;2023-08-24T01:57:28;23.79;58.67
25945;SHT31;13742;49.306;8.636;2023-08-24T01:58:28;23.78;58.95
25945;SHT31;13742;49.306;8.636;2023-08-24T01:59:28;23.76;58.85
25945;SHT31;13742;49.306;8.636;2023-08-24T02:00:31;23.72;58.81
25945;SHT31;13742;49.306;8.636;2023-08-24T02:01:28;23.73;59.80
25945;SHT31;13742;49.306;8.636;2023-08-24T02:02:28;23.68;60.05
25945;SHT31;13742;49.306;8.636;2023-08-24T02:03:28;23.68;59.93
25945;SHT31;13742;49.306;8.636;2023-08-24T02:04:28;23.65;59.82
25945;SHT31;13742;49.306;8.636;2023-08-24T02:05:29;23.63;59.68
25945;SHT31;13742;49.306;8.636;2023-08-24T02:06:28;23.53;61.13
25945;SHT31;13742;49.306;8.636;2023-08-24T02:07:29;23.55;60.48
25945;SHT31;13742;49.306;8.636;2023-08-24T02:08:28;23.35;61.50
25945;SHT31;13742;49.306;8.636;2023-08-24T02:09:28;23.38;60.65
25945;SHT31;13742;49.306;8.636;2023-08-24T02:10:28;23.40;60.93
25945;SHT31;13742;49.306;8.636;2023-08-24T02:11:28;23.37;60.64
25945;SHT31;13742;49.306;8.636;2023-08-24T02:12:28;23.35;60.64
25945;SHT31;13742;49.306;8.636;2023-08-24T02:13:28;23.34;60.79
25945;SHT31;13742;49.306;8.636;2023-08-24T02:14:28;23.32;61.08
25945;SHT31;13742;49.306;8.636;2023-08-24T02:15:28;23.27;61.43
25945;SHT31;13742;49.306;8.636;2023-08-24T02:16:28;23.28;61.05
25945;SHT31;13742;49.306;8.636;2023-08-24T02:17:28;23.22;61.23
25945;SHT31;13742;49.306;8.636;2023-08-24T02:18:28;23.20;61.55
25945;SHT31;13742;49.306;8.636;2023-08-24T02:19:28;23.15;61.31
25945;SHT31;13742;49.306;8.636;2023-08-24T02:20:28;23.10;62.03
25945;SHT31;13742;49.306;8.636;2023-08-24T02:21:28;23.04;61.66
25945;SHT31;13742;49.306;8.636;2023-08-24T02:22:29;23.04;61.53
25945;SHT31;13742;49.306;8.636;2023-08-24T02:23:28;23.01;61.22
25945;SHT31;13742;49.306;8.636;2023-08-24T02:24:28;23.04;61.12
25945;SHT31;13742;49.306;8.636;2023-08-24T02:25:28;23.04;61.08
25945;SHT31;13742;49.306;8.636;2023-08-24T02:26:28;23.05;62.29
25945;SHT31;13742;49.306;8.636;2023-08-24T02:27:28;23.04;62.04
25945;SHT31;13742;49.306;8.636;2023-08-24T02:28:28;23.03;61.70
25945;SHT31;13742;49.306;8.636;2023-08-24T02:29:28;23.03;61.52
25945;SHT31;13742;49.306;8.636;2023-08-24T02:30:28;23.03;61.71
25945;SHT31;13742;49.306;8.636;2023-08-24T02:31:28;23.01;61.76
25945;SHT31;13742;49.306;8.636;2023-08-24T02:32:28;23.03;62.07
25945;SHT31;13742;49.306;8.636;2023-08-24T02:33:28;22.98;62.02
25945;SHT31;13742;49.306;8.636;2023-08-24T02:34:28;22.98;61.80
25945;SHT31;13742;49.306;8.636;2023-08-24T02:35:28;22.95;61.67
25945;SHT31;13742;49.306;8.636;2023-08-24T02:36:28;22.95;61.50
25945;SHT31;13742;49.306;8.636;2023-08-24T02:37:28;22.95;61.82
25945;SHT31;13742;49.306;8.636;2023-08-24T02:38:28;22.97;62.34
25945;SHT31;13742;49.306;8.636;2023-08-24T02:39:28;22.93;62.69
25945;SHT31;13742;49.306;8.636;2023-08-24T02:40:28;22.93;62.56
25945;SHT31;13742;49.306;8.636;2023-08-24T02:41:28;22.93;62.05
25945;SHT31;13742;49.306;8.636;2023-08-24T02:42:30;22.91;61.98
25945;SHT31;13742;49.306;8.636;2023-08-24T02:43:28;22.89;62.06
25945;SHT31;13742;49.306;8.636;2023-08-24T02:44:28;22.87;61.97
25945;SHT31;13742;49.306;8.636;2023-08-24T02:45:28;22.87;62.08
25945;SHT31;13742;49.306;8.636;2023-08-24T02:46:28;22.87;61.83
25945;SHT31;13742;49.306;8.636;2023-08-24T02:47:28;22.87;61.99
25945;SHT31;13742;49.306;8.636;2023-08-24T02:48:28;22.90;61.87
25945;SHT31;13742;49.306;8.636;2023-08-24T02:49:28;22.87;61.80
25945;SHT31;13742;49.306;8.636;2023-08-24T02:50:28;22.87;61.79
25945;SHT31;13742;49.306;8.636;2023-08-24T02:51:28;22.87;61.66
25945;SHT31;13742;49.306;8.636;2023-08-24T02:52:28;22.87;61.75
25945;SHT31;13742;49.306;8.636;2023-08-24T02:53:28;22.83;61.93
25945;SHT31;13742;49.306;8.636;2023-08-24T02:54:28;22.86;61.87
25945;SHT31;13742;49.306;8.636;2023-08-24T02:55:32;22.86;61.81
25945;SHT31;13742;49.306;8.636;2023-08-24T02:56:28;22.84;61.85
25945;SHT31;13742;49.306;8.636;2023-08-24T02:57:28;22.83;61.67
25945;SHT31;13742;49.306;8.636;2023-08-24T02:58:28;22.84;61.77
25945;SHT31;13742;49.306;8.636;2023-08-24T02:59:28;22.83;61.73
25945;SHT31;13742;49.306;8.636;2023-08-24T03:00:28;22.82;62.19
25945;SHT31;13742;49.306;8.636;2023-08-24T03:01:28;22.84;62.12
25945;SHT31;13742;49.306;8.636;2023-08-24T03:02:28;22.83;62.62
25945;SHT31;13742;49.306;8.636;2023-08-24T03:03:28;22.80;62.39
25945;SHT31;13742;49.306;8.636;2023-08-24T03:04:28;22.76;62.38
25945;SHT31;13742;49.306;8.636;2023-08-24T03:05:28;22.76;62.39
25945;SHT31;13742;49.306;8.636;2023-08-24T03:06:28;22.73;62.24
25945;SHT31;13742;49.306;8.636;2023-08-24T03:07:28;22.72;62.40
25945;SHT31;13742;49.306;8.636;2023-08-24T03:08:29;22.69;62.25
25945;SHT31;13742;49.306;8.636;2023-08-24T03:09:28;22.72;62.02
25945;SHT31;13742;49.306;8.636;2023-08-24T03:10:28;22.70;62.29
25945;SHT31;13742;49.306;8.636;2023-08-24T03:11:28;22.67;62.45
25945;SHT31;13742;49.306;8.636;2023-08-24T03:12:28;22.69;62.07
25945;SHT31;13742;49.306;8.636;2023-08-24T03:13:29;22.70;62.65
25945;SHT31;13742;49.306;8.636;2023-08-24T03:14:28;22.66;62.58
25945;SHT31;13742;49.306;8.636;2023-08-24T03:15:28;22.66;62.35
25945;SHT31;13742;49.306;8.636;2023-08-24T03:16:28;22.66;62.33
25945;SHT31;13742;49.306;8.636;2023-08-24T03:17:28;22.63;62.80
25945;SHT31;13742;49.306;8.636;2023-08-24T03:18:28;22.64;62.90
25945;SHT31;13742;49.306;8.636;2023-08-24T03:19:28;22.63;62.37
25945;SHT31;13742;49.306;8.636;2023-08-24T03:20:28;22.62;62.61
25945;SHT31;13742;49.306;8.636;2023-08-24T03:21:28;22.63;62.71
25945;SHT31;13742;49.306;8.636;2023-08-24T03:22:28;22.62;62.35
25945;SHT31;13742;49.306;8.636;2023-08-24T03:23:28;22.63;63.21
25945;SHT31;13742;49.306;8.636;2023-08-24T03:24:28;22.60;62.90
25945;SHT31;13742;49.306;8.636;2023-08-24T03:25:28;22.60;63.11
25945;SHT31;13742;49.306;8.636;2023-08-24T03:26:28;22.59;62.62
25945;SHT31;13742;49.306;8.636;2023-08-24T03:27:28;22.59;63.00
25945;SHT31;13742;49.306;8.636;2023-08-24T03:28:28;22.59;63.37
25945;SHT31;13742;49.306;8.636;2023-08-24T03:29:28;22.62;63.35
25945;SHT31;13742;49.306;8.636;2023-08-24T03:30:28;22.62;62.97
25945;SHT31;13742;49.306;8.636;2023-08-24T03:31:29;22.56;63.70
25945;SHT31;13742;49.306;8.636;2023-08-24T03:32:28;22.56;63.76
25945;SHT31;13742;49.306;8.636;2023-08-24T03:33:28;22.49;63.96
25945;SHT31;13742;49.306;8.636;2023-08-24T03:34:29;22.46;63.81
25945;SHT31;13742;49.306;8.636;2023-08-24T03:35:29;22.39;64.21
25945;SHT31;13742;49.306;8.636;2023-08-24T03:36:28;22.39;64.46
25945;SHT31;13742;49.306;8.636;2023-08-24T03:37:28;22.36;64.29
25945;SHT31;13742;49.306;8.636;2023-08-24T03:38:28;22.35;64.60
25945;SHT31;13742;49.306;8.636;2023-08-24T03:39:28;22.35;64.47
25945;SHT31;13742;49.306;8.636;2023-08-24T03:40:28;22.35;64.33
25945;SHT31;13742;49.306;8.636;2023-08-24T03:41:28;22.35;65.16
25945;SHT31;13742;49.306;8.636;2023-08-24T03:42:28;22.33;64.51
25945;SHT31;13742;49.306;8.636;2023-08-24T03:43:31;22.32;64.39
25945;SHT31;13742;49.306;8.636;2023-08-24T03:44:28;22.35;64.07
25945;SHT31;13742;49.306;8.636;2023-08-24T03:45:28;22.32;64.33
25945;SHT31;13742;49.306;8.636;2023-08-24T03:46:28;22.32;64.40
25945;SHT31;13742;49.306;8.636;2023-08-24T03:47:28;22.33;64.46
25945;SHT31;13742;49.306;8.636;2023-08-24T03:48:28;22.38;64.05
25945;SHT31;13742;49.306;8.636;2023-08-24T03:49:28;22.38;64.11
25945;SHT31;13742;49.306;8.636;2023-08-24T03:50:28;22.39;64.14
25945;SHT31;13742;49.306;8.636;2023-08-24T03:51:28;22.43;63.32
25945;SHT31;13742;49.306;8.636;2023-08-24T03:52:28;22.42;60.85
25945;SHT31;13742;49.306;8.636;2023-08-24T03:53:28;22.42;60.76
25945;SHT31;13742;49.306;8.636;2023-08-24T03:54:28;22.43;60.29
25945;SHT31;13742;49.306;8.636;2023-08-24T03:55:28;22.46;59.32
25945;SHT31;13742;49.306;8.636;2023-08-24T03:56:28;22.47;59.86
25945;SHT31;13742;49.306;8.636;2023-08-24T03:57:28;22.51;59.85
25945;SHT31;13742;49.306;8.636;2023-08-24T03:58:28;22.55;59.56
25945;SHT31;13742;49.306;8.636;2023-08-24T03:59:28;22.58;59.69
25945;SHT31;13742;49.306;8.636;2023-08-24T04:00:28;22.60;59.43
25945;SHT31;13742;49.306;8.636;2023-08-24T04:01:28;22.60;59.36
25945;SHT31;13742;49.306;8.636;2023-08-24T04:02:28;22.63;58.71
25945;SHT31;13742;49.306;8.636;2023-08-24T04:03:28;22.66;58.79
25945;SHT31;13742;49.306;8.636;2023-08-24T04:04:29;22.69;58.25
25945;SHT31;13742;49.306;8.636;2023-08-24T04:05:28;22.69;58.00
25945;SHT31;13742;49.306;8.636;2023-08-24T04:06:28;22.69;57.87
25945;SHT31;13742;49.306;8.636;2023-08-24T04:07:28;22.70;57.86
25945;SHT31;13742;49.306;8.636;2023-08-24T04:08:28;22.72;57.72
25945;SHT31;13742;49.306;8.636;2023-08-24T04:09:28;22.76;57.49
25945;SHT31;13742;49.306;8.636;2023-08-24T04:10:31;22.74;57.43
25945;SHT31;13742;49.306;8.636;2023-08-24T04:11:28;22.77;57.54
25945;SHT31;13742;49.306;8.636;2023-08-24T04:12:29;22.77;57.25
25945;SHT31;13742;49.306;8.636;2023-08-24T04:13:28;22.79;57.16
25945;SHT31;13742;49.306;8.636;2023-08-24T04:14:28;22.79;57.13
25945;SHT31;13742;49.306;8.636;2023-08-24T04:15:28;22.82;57.00
25945;SHT31;13742;49.306;8.636;2023-08-24T04:16:28;22.80;57.16
25945;SHT31;13742;49.306;8.636;2023-08-24T04:17:28;22.82;57.28
25945;SHT31;13742;49.306;8.636;2023-08-24T04:18:28;22.83;57.34
25945;SHT31;13742;49.306;8.636;2023-08-24T04:19:28;22.83;57.51
25945;SHT31;13742;49.306;8.636;2023-08-24T04:20:28;22.82;57.70
25945;SHT31;13742;49.306;8.636;2023-08-24T04:21:28;22.82;58.03
25945;SHT31;13742;49.306;8.636;2023-08-24T04:22:28;22.79;58.43
25945;SHT31;13742;49.306;8.636;2023-08-24T04:23:28;22.80;58.62
25945;SHT31;13742;49.306;8.636;2023-08-24T04:24:29;22.74;59.03
25945;SHT31;13742;49.306;8.636;2023-08-24T04:25:29;22.76;59.19
25945;SHT31;13742;49.306;8.636;2023-08-24T04:26:28;22.76;59.16
25945;SHT31;13742;49.306;8.636;2023-08-24T04:27:28;22.70;59.46
25945;SHT31;13742;49.306;8.636;2023-08-24T04:28:28;22.67;59.60
25945;SHT31;13742;49.306;8.636;2023-08-24T04:29:28;22.56;59.97
25945;SHT31;13742;49.306;8.636;2023-08-24T04:30:28;22.53;59.86
25945;SHT31;13742;49.306;8.636;2023-08-24T04:31:28;22.51;59.96
25945;SHT31;13742;49.306;8.636;2023-08-24T04:32:28;22.49;60.15
25945;SHT31;13742;49.306;8.636;2023-08-24T04:33:28;22.52;60.21
25945;SHT31;13742;49.306;8.636;2023-08-24T04:34:28;22.53;60.23
25945;SHT31;13742;49.306;8.636;2023-08-24T04:35:28;22.53;60.35
25945;SHT31;13742;49.306;8.636;2023-08-24T04:36:28;22.49;60.21
25945;SHT31;13742;49.306;8.636;2023-08-24T04:37:28;22.49;60.43
25945;SHT31;13742;49.306;8.636;2023-08-24T04:38:28;22.47;60.51
25945;SHT31;13742;49.306;8.636;2023-08-24T04:39:29;22.49;60.46
25945;SHT31;13742;49.306;8.636;2023-08-24T04:40:28;22.46;60.41
25945;SHT31;13742;49.306;8.636;2023-08-24T04:41:28;22.43;60.44
25945;SHT31;13742;49.306;8.636;2023-08-24T04:42:28;22.40;60.33
25945;SHT31;13742;49.306;8.636;2023-08-24T04:43:28;22.33;60.71
25945;SHT31;13742;49.306;8.636;2023-08-24T04:44:28;22.33;60.40
25945;SHT31;13742;49.306;8.636;2023-08-24T04:45:28;22.32;60.64
25945;SHT31;13742;49.306;8.636;2023-08-24T04:46:28;22.29;60.85
25945;SHT31;13742;49.306;8.636;2023-08-24T04:47:28;22.26;60.71
25945;SHT31;13742;49.306;8.636;2023-08-24T04:48:33;22.24;60.58
25945;SHT31;13742;49.306;8.636;2023-08-24T04:49:32;22.29;60.34
25945;SHT31;13742;49.306;8.636;2023-08-24T04:50:28;22.25;60.49
25945;SHT31;13742;49.306;8.636;2023-08-24T04:51:29;22.19;60.58
25945;SHT31;13742;49.306;8.636;2023-08-24T04:52:28;22.19;60.70
25945;SHT31;13742;49.306;8.636;2023-08-24T04:53:28;22.21;60.47
25945;SHT31;13742;49.306;8.636;2023-08-24T04:54:28;22.19;60.40
25945;SHT31;13742;49.306;8.636;2023-08-24T04:55:28;22.24;60.30
25945;SHT31;13742;49.306;8.636;2023-08-24T04:56:28;22.25;60.22
25945;SHT31;13742;49.306;8.636;2023-08-24T04:57:28;22.25;60.39
25945;SHT31;13742;49.306;8.636;2023-08-24T04:58:28;22.26;60.51
25945;SHT31;13742;49.306;8.636;2023-08-24T04:59:28;22.28;60.23
25945;SHT31;13742;49.306;8.636;2023-08-24T05:00:28;22.29;60.13
25945;SHT31;13742;49.306;8.636;2023-08-24T05:01:29;22.29;60.14
25945;SHT31;13742;49.306;8.636;2023-08-24T05:02:28;22.31;60.35
25945;SHT31;13742;49.306;8.636;2023-08-24T05:03:28;22.33;60.26
25945;SHT31;13742;49.306;8.636;2023-08-24T05:04:28;22.33;59.96
25945;SHT31;13742;49.306;8.636;2023-08-24T05:05:29;22.31;60.29
25945;SHT31;13742;49.306;8.636;2023-08-24T05:06:28;22.32;60.20
25945;SHT31;13742;49.306;8.636;2023-08-24T05:07:28;22.31;60.07
25945;SHT31;13742;49.306;8.636;2023-08-24T05:08:28;22.31;60.00
25945;SHT31;13742;49.306;8.636;2023-08-24T05:09:28;22.33;60.14
25945;SHT31;13742;49.306;8.636;2023-08-24T05:10:32;22.35;60.04
25945;SHT31;13742;49.306;8.636;2023-08-24T05:11:29;22.35;59.95
25945;SHT31;13742;49.306;8.636;2023-08-24T05:12:29;22.35;59.76
25945;SHT31;13742;49.306;8.636;2023-08-24T05:13:28;22.36;59.96
25945;SHT31;13742;49.306;8.636;2023-08-24T05:14:28;22.39;59.91
25945;SHT31;13742;49.306;8.636;2023-08-24T05:15:28;22.39;59.74
25945;SHT31;13742;49.306;8.636;2023-08-24T05:16:28;22.45;59.60
25945;SHT31;13742;49.306;8.636;2023-08-24T05:17:28;22.43;59.38
25945;SHT31;13742;49.306;8.636;2023-08-24T05:18:28;22.46;59.34
25945;SHT31;13742;49.306;8.636;2023-08-24T05:19:28;22.46;59.29
25945;SHT31;13742;49.306;8.636;2023-08-24T05:20:28;22.47;59.18
25945;SHT31;13742;49.306;8.636;2023-08-24T05:21:28;22.47;59.11
25945;SHT31;13742;49.306;8.636;2023-08-24T05:22:29;22.47;58.98
25945;SHT31;13742;49.306;8.636;2023-08-24T05:23:29;22.49;58.91
25945;SHT31;13742;49.306;8.636;2023-08-24T05:24:28;22.51;58.95
25945;SHT31;13742;49.306;8.636;2023-08-24T05:25:28;22.51;58.86
25945;SHT31;13742;49.306;8.636;2023-08-24T05:26:28;22.52;58.90
25945;SHT31;13742;49.306;8.636;2023-08-24T05:27:28;22.52;58.83
25945;SHT31;13742;49.306;8.636;2023-08-24T05:28:30;22.53;58.97
25945;SHT31;13742;49.306;8.636;2023-08-24T05:29:28;22.56;58.82
25945;SHT31;13742;49.306;8.636;2023-08-24T05:30:29;22.55;58.70
25945;SHT31;13742;49.306;8.636;2023-08-24T05:31:28;22.58;58.57
25945;SHT31;13742;49.306;8.636;2023-08-24T05:32:28;22.58;56.98
25945;SHT31;13742;49.306;8.636;2023-08-24T05:33:31;22.60;57.07
25945;SHT31;13742;49.306;8.636;2023-08-24T05:34:28;22.62;57.37
25945;SHT31;13742;49.306;8.636;2023-08-24T05:35:28;22.62;57.59
25945;SHT31;13742;49.306;8.636;2023-08-24T05:36:28;22.35;60.87
25945;SHT31;13742;49.306;8.636;2023-08-24T05:37:28;22.33;61.18
25945;SHT31;13742;49.306;8.636;2023-08-24T05:38:28;22.35;61.49
25945;SHT31;13742;49.306;8.636;2023-08-24T05:39:28;22.12;62.38
25945;SHT31;13742;49.306;8.636;2023-08-24T05:40:28;22.12;62.69
25945;SHT31;13742;49.306;8.636;2023-08-24T05:41:28;22.07;62.92
25945;SHT31;13742;49.306;8.636;2023-08-24T05:42:28;22.04;63.35
25945;SHT31;13742;49.306;8.636;2023-08-24T05:43:28;21.95;63.84
25945;SHT31;13742;49.306;8.636;2023-08-24T05:44:28;21.88;64.26
25945;SHT31;13742;49.306;8.636;2023-08-24T05:45:28;21.82;64.90
25945;SHT31;13742;49.306;8.636;2023-08-24T05:46:28;21.80;65.66
25945;SHT31;13742;49.306;8.636;2023-08-24T05:47:28;21.74;66.21
25945;SHT31;13742;49.306;8.636;2023-08-24T05:48:29;21.70;66.26
25945;SHT31;13742;49.306;8.636;2023-08-24T05:49:28;21.67;66.70
25945;SHT31;13742;49.306;8.636;2023-08-24T05:50:28;21.61;67.33
25945;SHT31;13742;49.306;8.636;2023-08-24T05:51:28;21.58;67.51
25945;SHT31;13742;49.306;8.636;2023-08-24T05:52:28;21.63;67.75
25945;SHT31;13742;49.306;8.636;2023-08-24T05:53:28;21.57;68.11
25945;SHT31;13742;49.306;8.636;2023-08-24T05:54:28;21.50;69.03
25945;SHT31;13742;49.306;8.636;2023-08-24T05:55:28;21.50;69.30
25945;SHT31;13742;49.306;8.636;2023-08-24T05:56:28;21.50;69.62
25945;SHT31;13742;49.306;8.636;2023-08-24T05:57:28;21.53;69.70
25945;SHT31;13742;49.306;8.636;2023-08-24T05:58:28;21.56;69.58
25945;SHT31;13742;49.306;8.636;2023-08-24T05:59:28;21.56;69.96
25945;SHT31;13742;49.306;8.636;2023-08-24T06:00:29;21.52;70.47
25945;SHT31;13742;49.306;8.636;2023-08-24T06:01:28;21.56;70.74
25945;SHT31;13742;49.306;8.636;2023-08-24T06:02:28;21.50;70.90
25945;SHT31;13742;49.306;8.636;2023-08-24T06:03:28;21.56;70.71
25945;SHT31;13742;49.306;8.636;2023-08-24T06:04:28;21.56;71.25
25945;SHT31;13742;49.306;8.636;2023-08-24T06:05:30;21.60;71.19
25945;SHT31;13742;49.306;8.636;2023-08-24T06:06:28;21.67;70.90
25945;SHT31;13742;49.306;8.636;2023-08-24T06:07:28;21.68;70.87
25945;SHT31;13742;49.306;8.636;2023-08-24T06:08:28;21.71;70.74
25945;SHT31;13742;49.306;8.636;2023-08-24T06:09:28;21.75;70.73
25945;SHT31;13742;49.306;8.636;2023-08-24T06:10:28;21.75;70.25
25945;SHT31;13742;49.306;8.636;2023-08-24T06:11:28;21.84;70.31
25945;SHT31;13742;49.306;8.636;2023-08-24T06:12:28;21.88;69.94
25945;SHT31;13742;49.306;8.636;2023-08-24T06:13:28;21.88;69.88
25945;SHT31;13742;49.306;8.636;2023-08-24T06:14:28;21.90;70.17
25945;SHT31;13742;49.306;8.636;2023-08-24T06:15:28;21.88;70.17
25945;SHT31;13742;49.306;8.636;2023-08-24T06:16:28;21.87;70.21
25945;SHT31;13742;49.306;8.636;2023-08-24T06:17:28;21.91;70.10
25945;SHT31;13742;49.306;8.636;2023-08-24T06:18:28;21.94;69.79
25945;SHT31;13742;49.306;8.636;2023-08-24T06:19:28;21.93;70.07
25945;SHT31;13742;49.306;8.636;2023-08-24T06:20:28;21.82;69.85
25945;SHT31;13742;49.306;8.636;2023-08-24T06:21:28;21.87;70.14
25945;SHT31;13742;49.306;8.636;2023-08-24T06:22:28;21.87;70.14
25945;SHT31;13742;49.306;8.636;2023-08-24T06:23:28;21.85;70.07
25945;SHT31;13742;49.306;8.636;2023-08-24T06:24:29;21.90;70.02